sensor_id;sensor_type;location;lat;lon;timestamp;temperature;humidity
24452;DHT22;13350;50.984;5.822;2024-02-28T00:00:57;2.30;99.90
24452;DHT22;13350;50.984;5.822;2024-02-28T00:03:24;2.30;99.90
24452;DHT22;13350;50.984;5.822;2024-02-28T00:05:51;2.30;99.90
24452;DHT22;13350;50.984;5.822;2024-02-28T00:08:19;2.40;99.90
24452;DHT22;13350;50.984;5.822;2024-02-28T00:10:47;2.40;99.90
24452;DHT22;13350;50.984;5.822;2024-02-28T00:13:14;2.20;99.90
24452;DHT22;13350;50.984;5.822;2024-02-28T00:15:42;2.20;99.90
24452;DHT22;13350;50.984;5.822;2024-02-28T00:18:09;2.20;99.90
24452;DHT22;13350;50.984;5.822;2024-02-28T00:20:36;2.10;99.90
24452;DHT22;13350;50.984;5.822;2024-02-28T00:23:03;2.10;99.90
24452;DHT22;13350;50.984;5.822;2024-02-28T00:25:31;2.20;99.90
24452;DHT22;13350;50.984;5.822;2024-02-28T00:27:58;2.20;99.90
24452;DHT22;13350;50.984;5.822;2024-02-28T00:30:25;2.20;99.90
24452;DHT22;13350;50.984;5.822;2024-02-28T00:32:53;2.20;99.90
24452;DHT22;13350;50.984;5.822;2024-02-28T00:35:20;2.10;99.90
24452;DHT22;13350;50.984;5.822;2024-02-28T00:37:47;2.00;99.90
24452;DHT22;13350;50.984;5.822;2024-02-28T00:40:14;1.90;99.90
24452;DHT22;13350;50.984;5.822;2024-02-28T00:42:42;1.90;99.90
24452;DHT22;13350;50.984;5.822;2024-02-28T00:45:10;1.80;99.90
24452;DHT22;13350;50.984;5.822;2024-02-28T00:47:37;1.80;99.90
24452;DHT22;13350;50.984;5.822;2024-02-28T00:50:05;1.80;99.90
24452;DHT22;13350;50.984;5.822;2024-02-28T00:52:32;1.70;99.90
24452;DHT22;13350;50.984;5.822;2024-02-28T00:54:59;1.70;99.90
24452;DHT22;13350;50.984;5.822;2024-02-28T00:57:26;1.70;99.90
24452;DHT22;13350;50.984;5.822;2024-02-28T00:59:55;1.70;99.90
24452;DHT22;13350;50.984;5.822;2024-02-28T01:02:21;1.70;99.90
24452;DHT22;13350;50.984;5.822;2024-02-28T01:04:48;1.60;99.90
24452;DHT22;13350;50.984;5.822;2024-02-28T01:07:15;1.60;99.90
24452;DHT22;13350;50.984;5.822;2024-02-28T01:09:42;1.60;99.90
24452;DHT22;13350;50.984;5.822;2024-02-28T01:12:10;1.70;99.90
24452;DHT22;13350;50.984;5.822;2024-02-28T01:14:36;1.70;99.90
24452;DHT22;13350;50.984;5.822;2024-02-28T01:17:05;1.80;99.90
24452;DHT22;13350;50.984;5.822;2024-02-28T01:19:32;1.70;99.90
24452;DHT22;13350;50.984;5.822;2024-02-28T01:21:59;1.80;99.90
24452;DHT22;13350;50.984;5.822;2024-02-28T01:24:26;1.90;99.90
24452;DHT22;13350;50.984;5.822;2024-02-28T01:26:52;1.90;99.90
24452;DHT22;13350;50.984;5.822;2024-02-28T01:29:19;2.00;99.90
24452;DHT22;13350;50.984;5.822;2024-02-28T01:31:47;2.00;99.90
24452;DHT22;13350;50.984;5.822;2024-02-28T01:34:15;1.90;99.90
24452;DHT22;13350;50.984;5.822;2024-02-28T01:36:42;2.00;99.90
24452;DHT22;13350;50.984;5.822;2024-02-28T01:39:09;2.10;99.90
24452;DHT22;13350;50.984;5.822;2024-02-28T01:41:36;2.20;99.90
24452;DHT22;13350;50.984;5.822;2024-02-28T01:44:03;2.20;99.90
24452;DHT22;13350;50.984;5.822;2024-02-28T01:46:30;2.30;99.90
24452;DHT22;13350;50.984;5.822;2024-02-28T01:48:58;2.30;99.90
24452;DHT22;13350;50.984;5.822;2024-02-28T01:51:26;2.40;99.90
24452;DHT22;13350;50.984;5.822;2024-02-28T01:53:53;2.50;99.90
24452;DHT22;13350;50.984;5.822;2024-02-28T01:56:21;2.50;99.90
24452;DHT22;13350;50.984;5.822;2024-02-28T01:58:49;2.50;99.90
24452;DHT22;13350;50.984;5.822;2024-02-28T02:01:17;2.40;99.90
24452;DHT22;13350;50.984;5.822;2024-02-28T02:03:44;2.40;99.90
24452;DHT22;13350;50.984;5.822;2024-02-28T02:06:11;2.40;99.90
24452;DHT22;13350;50.984;5.822;2024-02-28T02:08:39;2.40;99.90
24452;DHT22;13350;50.984;5.822;2024-02-28T02:11:07;2.40;99.90
24452;DHT22;13350;50.984;5.822;2024-02-28T02:13:34;2.80;99.90
24452;DHT22;13350;50.984;5.822;2024-02-28T02:16:02;3.10;99.90
24452;DHT22;13350;50.984;5.822;2024-02-28T02:18:29;3.20;99.90
24452;DHT22;13350;50.984;5.822;2024-02-28T02:20:58;3.30;99.90
24452;DHT22;13350;50.984;5.822;2024-02-28T02:23:27;3.30;99.90
24452;DHT22;13350;50.984;5.822;2024-02-28T02:25:54;3.30;99.90
24452;DHT22;13350;50.984;5.822;2024-02-28T02:28:21;3.30;99.90
24452;DHT22;13350;50.984;5.822;2024-02-28T02:30:48;3.30;99.90
24452;DHT22;13350;50.984;5.822;2024-02-28T02:33:15;3.20;99.90
24452;DHT22;13350;50.984;5.822;2024-02-28T02:35:43;3.10;99.90
24452;DHT22;13350;50.984;5.822;2024-02-28T02:38:10;3.20;99.90
24452;DHT22;13350;50.984;5.822;2024-02-28T02:40:38;3.20;99.90
24452;DHT22;13350;50.984;5.822;2024-02-28T02:43:05;3.10;99.90
24452;DHT22;13350;50.984;5.822;2024-02-28T02:45:32;3.10;99.90
24452;DHT22;13350;50.984;5.822;2024-02-28T02:47:58;3.10;99.90
24452;DHT22;13350;50.984;5.822;2024-02-28T02:50:25;3.00;99.90
24452;DHT22;13350;50.984;5.822;2024-02-28T02:52:52;3.00;99.90
24452;DHT22;13350;50.984;5.822;2024-02-28T02:55:19;2.80;99.90
24452;DHT22;13350;50.984;5.822;2024-02-28T02:57:47;2.70;99.90
24452;DHT22;13350;50.984;5.822;2024-02-28T03:00:14;2.70;99.90
24452;DHT22;13350;50.984;5.822;2024-02-28T03:02:41;2.70;99.90
24452;DHT22;13350;50.984;5.822;2024-02-28T03:05:08;2.70;99.90
24452;DHT22;13350;50.984;5.822;2024-02-28T03:07:35;2.70;99.90
24452;DHT22;13350;50.984;5.822;2024-02-28T03:10:02;2.70;99.90
24452;DHT22;13350;50.984;5.822;2024-02-28T03:12:29;2.60;99.90
24452;DHT22;13350;50.984;5.822;2024-02-28T03:14:58;2.60;99.90
24452;DHT22;13350;50.984;5.822;2024-02-28T03:17:25;2.60;99.90
24452;DHT22;13350;50.984;5.822;2024-02-28T03:19:52;2.60;99.90
24452;DHT22;13350;50.984;5.822;2024-02-28T03:22:18;2.60;99.90
24452;DHT22;13350;50.984;5.822;2024-02-28T03:24:45;2.70;99.90
24452;DHT22;13350;50.984;5.822;2024-02-28T03:27:12;2.70;99.90
24452;DHT22;13350;50.984;5.822;2024-02-28T03:29:39;2.70;99.90
24452;DHT22;13350;50.984;5.822;2024-02-28T03:32:07;2.80;99.90
24452;DHT22;13350;50.984;5.822;2024-02-28T03:34:34;2.70;99.90
24452;DHT22;13350;50.984;5.822;2024-02-28T03:37:01;2.70;99.90
24452;DHT22;13350;50.984;5.822;2024-02-28T03:39:28;2.60;99.90
24452;DHT22;13350;50.984;5.822;2024-02-28T03:41:55;2.60;99.90
24452;DHT22;13350;50.984;5.822;2024-02-28T03:44:22;2.60;99.90
24452;DHT22;13350;50.984;5.822;2024-02-28T03:46:51;2.60;99.90
24452;DHT22;13350;50.984;5.822;2024-02-28T03:49:19;2.60;99.90
24452;DHT22;13350;50.984;5.822;2024-02-28T03:51:46;2.60;99.90
24452;DHT22;13350;50.984;5.822;2024-02-28T03:54:13;2.60;99.90
24452;DHT22;13350;50.984;5.822;2024-02-28T03:56:40;2.60;99.90
24452;DHT22;13350;50.984;5.822;2024-02-28T03:59:07;2.60;99.90
24452;DHT22;13350;50.984;5.822;2024-02-28T04:01:34;2.60;99.90
24452;DHT22;13350;50.984;5.822;2024-02-28T04:04:01;2.60;99.90
24452;DHT22;13350;50.984;5.822;2024-02-28T04:06:29;2.70;99.90
24452;DHT22;13350;50.984;5.822;2024-02-28T04:08:56;2.70;99.90
24452;DHT22;13350;50.984;5.822;2024-02-28T04:11:23;2.90;99.90
24452;DHT22;13350;50.984;5.822;2024-02-28T04:13:50;2.90;99.90
24452;DHT22;13350;50.984;5.822;2024-02-28T04:16:17;3.00;99.90
24452;DHT22;13350;50.984;5.822;2024-02-28T04:18:44;3.00;99.90
24452;DHT22;13350;50.984;5.822;2024-02-28T04:21:11;3.00;99.90
24452;DHT22;13350;50.984;5.822;2024-02-28T04:23:39;3.10;99.90
24452;DHT22;13350;50.984;5.822;2024-02-28T04:26:07;3.10;99.90
24452;DHT22;13350;50.984;5.822;2024-02-28T04:28:35;3.10;99.90
24452;DHT22;13350;50.984;5.822;2024-02-28T04:31:02;3.10;99.90
24452;DHT22;13350;50.984;5.822;2024-02-28T04:33:29;3.10;99.90
24452;DHT22;13350;50.984;5.822;2024-02-28T04:35:56;3.10;99.90
24452;DHT22;13350;50.984;5.822;2024-02-28T04:38:23;3.10;99.90
24452;DHT22;13350;50.984;5.822;2024-02-28T04:40:51;3.00;99.90
24452;DHT22;13350;50.984;5.822;2024-02-28T04:43:18;3.00;99.90
24452;DHT22;13350;50.984;5.822;2024-02-28T04:45:45;3.00;99.90
24452;DHT22;13350;50.984;5.822;2024-02-28T04:48:11;3.00;99.90
24452;DHT22;13350;50.984;5.822;2024-02-28T04:50:39;3.00;99.90
24452;DHT22;13350;50.984;5.822;2024-02-28T04:53:06;2.90;99.90
24452;DHT22;13350;50.984;5.822;2024-02-28T04:55:34;2.90;99.90
24452;DHT22;13350;50.984;5.822;2024-02-28T04:58:02;2.90;99.90
24452;DHT22;13350;50.984;5.822;2024-02-28T05:00:29;2.80;99.90
24452;DHT22;13350;50.984;5.822;2024-02-28T05:02:57;2.80;99.90
24452;DHT22;13350;50.984;5.822;2024-02-28T05:05:23;2.80;99.90
24452;DHT22;13350;50.984;5.822;2024-02-28T05:07:50;2.80;99.90
24452;DHT22;13350;50.984;5.822;2024-02-28T05:10:17;2.80;99.90
24452;DHT22;13350;50.984;5.822;2024-02-28T05:12:44;2.80;99.90
24452;DHT22;13350;50.984;5.822;2024-02-28T05:15:13;2.80;99.90
24452;DHT22;13350;50.984;5.822;2024-02-28T05:17:40;2.70;99.90
24452;DHT22;13350;50.984;5.822;2024-02-28T05:20:07;2.70;99.90
24452;DHT22;13350;50.984;5.822;2024-02-28T05:22:35;2.80;99.90
24452;DHT22;13350;50.984;5.822;2024-02-28T05:25:01;2.80;99.90
24452;DHT22;13350;50.984;5.822;2024-02-28T05:27:28;2.80;99.90
24452;DHT22;13350;50.984;5.822;2024-02-28T05:29:55;2.80;99.90
24452;DHT22;13350;50.984;5.822;2024-02-28T05:32:24;2.80;99.90
24452;DHT22;13350;50.984;5.822;2024-02-28T05:34:51;2.80;99.90
24452;DHT22;13350;50.984;5.822;2024-02-28T05:37:17;2.80;99.90
24452;DHT22;13350;50.984;5.822;2024-02-28T05:39:45;2.80;99.90
24452;DHT22;13350;50.984;5.822;2024-02-28T05:42:12;2.90;99.90
24452;DHT22;13350;50.984;5.822;2024-02-28T05:44:39;2.90;99.90
24452;DHT22;13350;50.984;5.822;2024-02-28T05:47:06;2.90;99.90
24452;DHT22;13350;50.984;5.822;2024-02-28T05:49:34;2.90;99.90
24452;DHT22;13350;50.984;5.822;2024-02-28T05:52:01;3.00;99.90
24452;DHT22;13350;50.984;5.822;2024-02-28T05:54:28;2.90;99.90
24452;DHT22;13350;50.984;5.822;2024-02-28T05:56:55;3.00;99.90
24452;DHT22;13350;50.984;5.822;2024-02-28T05:59:22;3.00;99.90
24452;DHT22;13350;50.984;5.822;2024-02-28T06:01:49;3.00;99.90
24452;DHT22;13350;50.984;5.822;2024-02-28T06:04:15;3.00;99.90
24452;DHT22;13350;50.984;5.822;2024-02-28T06:06:44;3.00;99.90
24452;DHT22;13350;50.984;5.822;2024-02-28T06:09:11;3.00;99.90
24452;DHT22;13350;50.984;5.822;2024-02-28T06:11:37;3.00;99.90
24452;DHT22;13350;50.984;5.822;2024-02-28T06:14:04;3.00;99.90
24452;DHT22;13350;50.984;5.822;2024-02-28T06:16:31;3.00;99.90
24452;DHT22;13350;50.984;5.822;2024-02-28T06:18:58;3.00;99.90
24452;DHT22;13350;50.984;5.822;2024-02-28T06:21:25;3.10;99.90
24452;DHT22;13350;50.984;5.822;2024-02-28T06:23:53;3.10;99.90
24452;DHT22;13350;50.984;5.822;2024-02-28T06:26:20;3.10;99.90
24452;DHT22;13350;50.984;5.822;2024-02-28T06:28:47;3.10;99.90
24452;DHT22;13350;50.984;5.822;2024-02-28T06:31:16;3.20;99.90
24452;DHT22;13350;50.984;5.822;2024-02-28T06:33:43;3.20;99.90
24452;DHT22;13350;50.984;5.822;2024-02-28T06:36:10;3.30;99.90
24452;DHT22;13350;50.984;5.822;2024-02-28T06:38:36;3.30;99.90
24452;DHT22;13350;50.984;5.822;2024-02-28T06:41:05;3.30;99.90
24452;DHT22;13350;50.984;5.822;2024-02-28T06:43:32;3.30;99.90
24452;DHT22;13350;50.984;5.822;2024-02-28T06:46:00;3.40;99.90
24452;DHT22;13350;50.984;5.822;2024-02-28T06:48:27;3.40;99.90
24452;DHT22;13350;50.984;5.822;2024-02-28T06:50:54;3.50;99.90
24452;DHT22;13350;50.984;5.822;2024-02-28T06:53:20;3.50;99.90
24452;DHT22;13350;50.984;5.822;2024-02-28T06:55:47;3.60;99.90
24452;DHT22;13350;50.984;5.822;2024-02-28T06:58:16;3.50;99.90
24452;DHT22;13350;50.984;5.822;2024-02-28T07:00:43;3.60;99.90
24452;DHT22;13350;50.984;5.822;2024-02-28T07:03:10;3.70;99.90
24452;DHT22;13350;50.984;5.822;2024-02-28T07:05:36;3.70;99.90
24452;DHT22;13350;50.984;5.822;2024-02-28T07:08:04;3.80;99.90
24452;DHT22;13350;50.984;5.822;2024-02-28T07:10:30;3.80;99.90
24452;DHT22;13350;50.984;5.822;2024-02-28T07:12:57;3.90;99.90
24452;DHT22;13350;50.984;5.822;2024-02-28T07:15:25;3.90;99.90
24452;DHT22;13350;50.984;5.822;2024-02-28T07:17:51;3.90;99.90
24452;DHT22;13350;50.984;5.822;2024-02-28T07:20:19;4.00;99.90
24452;DHT22;13350;50.984;5.822;2024-02-28T07:22:46;4.10;99.90
24452;DHT22;13350;50.984;5.822;2024-02-28T07:25:13;4.10;99.90
24452;DHT22;13350;50.984;5.822;2024-02-28T07:27:40;4.10;99.90
24452;DHT22;13350;50.984;5.822;2024-02-28T07:30:07;4.10;99.90
24452;DHT22;13350;50.984;5.822;2024-02-28T07:32:36;4.00;99.90
24452;DHT22;13350;50.984;5.822;2024-02-28T07:35:03;4.10;99.90
24452;DHT22;13350;50.984;5.822;2024-02-28T07:37:30;4.10;99.90
24452;DHT22;13350;50.984;5.822;2024-02-28T07:39:57;4.10;99.90
24452;DHT22;13350;50.984;5.822;2024-02-28T07:42:24;4.20;99.90
24452;DHT22;13350;50.984;5.822;2024-02-28T07:44:51;4.30;99.90
24452;DHT22;13350;50.984;5.822;2024-02-28T07:47:22;4.30;99.90
24452;DHT22;13350;50.984;5.822;2024-02-28T07:49:51;4.20;99.90
24452;DHT22;13350;50.984;5.822;2024-02-28T07:52:19;4.20;99.90
24452;DHT22;13350;50.984;5.822;2024-02-28T07:54:46;4.20;99.90
24452;DHT22;13350;50.984;5.822;2024-02-28T07:57:14;4.20;99.90
24452;DHT22;13350;50.984;5.822;2024-02-28T07:59:41;4.30;99.90
24452;DHT22;13350;50.984;5.822;2024-02-28T08:02:08;4.30;99.90
24452;DHT22;13350;50.984;5.822;2024-02-28T08:04:37;4.40;99.90
24452;DHT22;13350;50.984;5.822;2024-02-28T08:07:05;4.50;99.90
24452;DHT22;13350;50.984;5.822;2024-02-28T08:09:33;4.50;99.90
24452;DHT22;13350;50.984;5.822;2024-02-28T08:12:00;4.50;99.90
24452;DHT22;13350;50.984;5.822;2024-02-28T08:14:27;4.60;99.90
24452;DHT22;13350;50.984;5.822;2024-02-28T08:16:54;4.80;99.90
24452;DHT22;13350;50.984;5.822;2024-02-28T08:19:21;4.90;99.90
24452;DHT22;13350;50.984;5.822;2024-02-28T08:21:48;4.90;99.90
24452;DHT22;13350;50.984;5.822;2024-02-28T08:24:16;5.10;99.90
24452;DHT22;13350;50.984;5.822;2024-02-28T08:26:43;5.40;99.90
24452;DHT22;13350;50.984;5.822;2024-02-28T08:29:10;5.30;99.90
24452;DHT22;13350;50.984;5.822;2024-02-28T08:31:40;5.40;99.90
24452;DHT22;13350;50.984;5.822;2024-02-28T08:34:08;5.10;99.90
24452;DHT22;13350;50.984;5.822;2024-02-28T08:36:35;5.00;99.90
24452;DHT22;13350;50.984;5.822;2024-02-28T08:39:02;5.10;99.90
24452;DHT22;13350;50.984;5.822;2024-02-28T08:41:33;5.10;99.90
24452;DHT22;13350;50.984;5.822;2024-02-28T08:44:00;5.20;99.90
24452;DHT22;13350;50.984;5.822;2024-02-28T08:46:27;5.20;99.90
24452;DHT22;13350;50.984;5.822;2024-02-28T08:48:54;5.30;99.90
24452;DHT22;13350;50.984;5.822;2024-02-28T08:51:21;5.30;99.90
24452;DHT22;13350;50.984;5.822;2024-02-28T08:53:48;5.20;99.90
24452;DHT22;13350;50.984;5.822;2024-02-28T08:56:15;5.40;99.90
24452;DHT22;13350;50.984;5.822;2024-02-28T08:58:43;5.40;99.90
24452;DHT22;13350;50.984;5.822;2024-02-28T09:01:13;5.30;99.90
24452;DHT22;13350;50.984;5.822;2024-02-28T09:03:40;5.20;99.90
24452;DHT22;13350;50.984;5.822;2024-02-28T09:06:07;5.40;99.90
24452;DHT22;13350;50.984;5.822;2024-02-28T09:08:34;5.70;99.90
24452;DHT22;13350;50.984;5.822;2024-02-28T09:11:01;5.70;99.90
24452;DHT22;13350;50.984;5.822;2024-02-28T09:13:28;5.90;99.90
24452;DHT22;13350;50.984;5.822;2024-02-28T09:15:57;5.80;99.90
24452;DHT22;13350;50.984;5.822;2024-02-28T09:18:24;5.90;99.90
24452;DHT22;13350;50.984;5.822;2024-02-28T09:20:51;5.90;99.90
24452;DHT22;13350;50.984;5.822;2024-02-28T09:23:18;6.10;99.90
24452;DHT22;13350;50.984;5.822;2024-02-28T09:25:45;6.10;99.90
24452;DHT22;13350;50.984;5.822;2024-02-28T09:28:12;6.20;99.90
24452;DHT22;13350;50.984;5.822;2024-02-28T09:30:41;6.10;99.90
24452;DHT22;13350;50.984;5.822;2024-02-28T09:33:09;6.00;99.90
24452;DHT22;13350;50.984;5.822;2024-02-28T09:35:37;6.00;99.90
24452;DHT22;13350;50.984;5.822;2024-02-28T09:38:04;6.00;99.90
24452;DHT22;13350;50.984;5.822;2024-02-28T09:40:31;5.90;99.90
24452;DHT22;13350;50.984;5.822;2024-02-28T09:43:00;5.90;99.90
24452;DHT22;13350;50.984;5.822;2024-02-28T09:45:27;5.90;99.90
24452;DHT22;13350;50.984;5.822;2024-02-28T09:47:56;6.10;99.90
24452;DHT22;13350;50.984;5.822;2024-02-28T09:50:25;6.40;99.90
24452;DHT22;13350;50.984;5.822;2024-02-28T09:52:52;6.60;99.90
24452;DHT22;13350;50.984;5.822;2024-02-28T09:55:19;6.90;99.90
24452;DHT22;13350;50.984;5.822;2024-02-28T09:57:46;7.30;99.90
24452;DHT22;13350;50.984;5.822;2024-02-28T10:00:14;7.40;99.90
24452;DHT22;13350;50.984;5.822;2024-02-28T10:02:42;7.70;99.90
24452;DHT22;13350;50.984;5.822;2024-02-28T10:05:09;7.60;99.90
24452;DHT22;13350;50.984;5.822;2024-02-28T10:07:38;7.60;99.90
24452;DHT22;13350;50.984;5.822;2024-02-28T10:10:05;7.60;99.90
24452;DHT22;13350;50.984;5.822;2024-02-28T10:12:33;7.50;99.90
24452;DHT22;13350;50.984;5.822;2024-02-28T10:15:00;7.70;99.90
24452;DHT22;13350;50.984;5.822;2024-02-28T10:17:27;7.90;99.90
24452;DHT22;13350;50.984;5.822;2024-02-28T10:19:54;7.60;99.90
24452;DHT22;13350;50.984;5.822;2024-02-28T10:22:24;7.40;99.90
24452;DHT22;13350;50.984;5.822;2024-02-28T10:24:57;7.20;99.90
24452;DHT22;13350;50.984;5.822;2024-02-28T10:27:25;7.40;99.90
24452;DHT22;13350;50.984;5.822;2024-02-28T10:29:51;8.00;99.90
24452;DHT22;13350;50.984;5.822;2024-02-28T10:32:18;8.40;99.90
24452;DHT22;13350;50.984;5.822;2024-02-28T10:34:45;8.50;99.90
24452;DHT22;13350;50.984;5.822;2024-02-28T10:37:13;9.10;99.90
24452;DHT22;13350;50.984;5.822;2024-02-28T10:39:40;9.30;99.90
24452;DHT22;13350;50.984;5.822;2024-02-28T10:42:09;9.40;99.90
24452;DHT22;13350;50.984;5.822;2024-02-28T10:44:36;9.50;99.90
24452;DHT22;13350;50.984;5.822;2024-02-28T10:47:03;9.30;99.90
24452;DHT22;13350;50.984;5.822;2024-02-28T10:49:31;9.20;99.90
24452;DHT22;13350;50.984;5.822;2024-02-28T10:51:57;9.10;99.90
24452;DHT22;13350;50.984;5.822;2024-02-28T10:54:25;9.00;99.90
24452;DHT22;13350;50.984;5.822;2024-02-28T10:56:56;9.30;99.90
24452;DHT22;13350;50.984;5.822;2024-02-28T10:59:26;9.50;99.90
24452;DHT22;13350;50.984;5.822;2024-02-28T11:01:54;9.60;99.90
24452;DHT22;13350;50.984;5.822;2024-02-28T11:04:21;9.50;99.90
24452;DHT22;13350;50.984;5.822;2024-02-28T11:06:49;9.60;99.90
24452;DHT22;13350;50.984;5.822;2024-02-28T11:09:20;9.50;99.90
24452;DHT22;13350;50.984;5.822;2024-02-28T11:11:49;9.80;99.90
24452;DHT22;13350;50.984;5.822;2024-02-28T11:14:17;10.10;99.90
24452;DHT22;13350;50.984;5.822;2024-02-28T11:16:58;10.30;99.90
24452;DHT22;13350;50.984;5.822;2024-02-28T11:19:27;10.50;99.90
24452;DHT22;13350;50.984;5.822;2024-02-28T11:21:54;11.10;99.90
24452;DHT22;13350;50.984;5.822;2024-02-28T11:24:22;11.40;99.90
24452;DHT22;13350;50.984;5.822;2024-02-28T11:26:50;11.00;99.90
24452;DHT22;13350;50.984;5.822;2024-02-28T11:29:21;11.30;99.90
24452;DHT22;13350;50.984;5.822;2024-02-28T11:31:50;11.30;99.90
24452;DHT22;13350;50.984;5.822;2024-02-28T11:34:17;11.40;99.90
24452;DHT22;13350;50.984;5.822;2024-02-28T11:36:46;11.30;99.90
24452;DHT22;13350;50.984;5.822;2024-02-28T11:39:13;11.40;99.90
24452;DHT22;13350;50.984;5.822;2024-02-28T11:41:40;11.90;99.90
24452;DHT22;13350;50.984;5.822;2024-02-28T11:44:07;12.50;99.90
24452;DHT22;13350;50.984;5.822;2024-02-28T11:46:34;12.20;99.90
24452;DHT22;13350;50.984;5.822;2024-02-28T11:49:02;12.00;99.90
24452;DHT22;13350;50.984;5.822;2024-02-28T11:51:31;11.40;99.90
24452;DHT22;13350;50.984;5.822;2024-02-28T11:54:00;11.60;99.90
24452;DHT22;13350;50.984;5.822;2024-02-28T11:56:27;12.00;99.90
24452;DHT22;13350;50.984;5.822;2024-02-28T11:58:54;12.30;99.90
24452;DHT22;13350;50.984;5.822;2024-02-28T12:01:34;12.70;99.90
24452;DHT22;13350;50.984;5.822;2024-02-28T12:04:03;12.20;99.90
24452;DHT22;13350;50.984;5.822;2024-02-28T12:06:31;11.40;99.90
24452;DHT22;13350;50.984;5.822;2024-02-28T12:08:58;11.40;99.90
24452;DHT22;13350;50.984;5.822;2024-02-28T12:11:25;11.30;99.90
24452;DHT22;13350;50.984;5.822;2024-02-28T12:13:54;11.70;99.90
24452;DHT22;13350;50.984;5.822;2024-02-28T12:16:22;11.70;99.90
24452;DHT22;13350;50.984;5.822;2024-02-28T12:18:49;11.50;99.90
24452;DHT22;13350;50.984;5.822;2024-02-28T12:21:17;11.90;99.90
24452;DHT22;13350;50.984;5.822;2024-02-28T12:23:44;12.30;99.90
24452;DHT22;13350;50.984;5.822;2024-02-28T12:26:12;12.40;99.90
24452;DHT22;13350;50.984;5.822;2024-02-28T12:28:39;12.30;99.90
24452;DHT22;13350;50.984;5.822;2024-02-28T12:31:06;12.70;99.90
24452;DHT22;13350;50.984;5.822;2024-02-28T12:33:34;12.70;99.90
24452;DHT22;13350;50.984;5.822;2024-02-28T12:36:01;12.60;99.90
24452;DHT22;13350;50.984;5.822;2024-02-28T12:38:31;12.60;99.90
24452;DHT22;13350;50.984;5.822;2024-02-28T12:40:57;11.90;99.90
24452;DHT22;13350;50.984;5.822;2024-02-28T12:43:24;12.10;99.90
24452;DHT22;13350;50.984;5.822;2024-02-28T12:45:52;12.30;99.90
24452;DHT22;13350;50.984;5.822;2024-02-28T12:48:18;11.90;99.90
24452;DHT22;13350;50.984;5.822;2024-02-28T12:50:45;11.80;99.90
24452;DHT22;13350;50.984;5.822;2024-02-28T12:53:12;12.00;99.90
24452;DHT22;13350;50.984;5.822;2024-02-28T12:55:41;12.60;99.90
24452;DHT22;13350;50.984;5.822;2024-02-28T12:58:09;12.50;99.90
24452;DHT22;13350;50.984;5.822;2024-02-28T13:00:36;12.30;99.90
24452;DHT22;13350;50.984;5.822;2024-02-28T13:03:03;11.70;99.90
24452;DHT22;13350;50.984;5.822;2024-02-28T13:05:31;11.70;99.90
24452;DHT22;13350;50.984;5.822;2024-02-28T13:07:58;11.70;99.90
24452;DHT22;13350;50.984;5.822;2024-02-28T13:10:25;11.70;99.90
24452;DHT22;13350;50.984;5.822;2024-02-28T13:12:54;11.10;99.90
24452;DHT22;13350;50.984;5.822;2024-02-28T13:15:21;10.80;99.90
24452;DHT22;13350;50.984;5.822;2024-02-28T13:17:48;10.60;99.90
24452;DHT22;13350;50.984;5.822;2024-02-28T13:20:16;10.80;99.90
24452;DHT22;13350;50.984;5.822;2024-02-28T13:22:43;10.90;99.90
24452;DHT22;13350;50.984;5.822;2024-02-28T13:25:10;11.00;99.90
24452;DHT22;13350;50.984;5.822;2024-02-28T13:27:39;11.00;99.90
24452;DHT22;13350;50.984;5.822;2024-02-28T13:30:08;10.90;99.90
24452;DHT22;13350;50.984;5.822;2024-02-28T13:32:35;10.90;99.90
24452;DHT22;13350;50.984;5.822;2024-02-28T13:35:02;10.90;99.90
24452;DHT22;13350;50.984;5.822;2024-02-28T13:37:29;11.20;99.90
24452;DHT22;13350;50.984;5.822;2024-02-28T13:39:57;11.00;99.90
24452;DHT22;13350;50.984;5.822;2024-02-28T13:42:24;10.90;99.90
24452;DHT22;13350;50.984;5.822;2024-02-28T13:44:51;11.30;99.90
24452;DHT22;13350;50.984;5.822;2024-02-28T13:47:19;11.90;99.90
24452;DHT22;13350;50.984;5.822;2024-02-28T13:49:46;12.10;99.90
24452;DHT22;13350;50.984;5.822;2024-02-28T13:52:15;12.30;99.90
24452;DHT22;13350;50.984;5.822;2024-02-28T13:54:42;12.50;99.90
24452;DHT22;13350;50.984;5.822;2024-02-28T13:57:10;12.30;99.90
24452;DHT22;13350;50.984;5.822;2024-02-28T13:59:37;12.00;99.90
24452;DHT22;13350;50.984;5.822;2024-02-28T14:02:05;11.80;99.90
24452;DHT22;13350;50.984;5.822;2024-02-28T14:04:32;11.30;99.90
24452;DHT22;13350;50.984;5.822;2024-02-28T14:06:59;10.90;99.90
24452;DHT22;13350;50.984;5.822;2024-02-28T14:09:26;10.90;99.90
24452;DHT22;13350;50.984;5.822;2024-02-28T14:11:53;10.80;99.90
24452;DHT22;13350;50.984;5.822;2024-02-28T14:14:20;11.10;99.90
24452;DHT22;13350;50.984;5.822;2024-02-28T14:16:47;11.00;99.90
24452;DHT22;13350;50.984;5.822;2024-02-28T14:19:14;11.20;99.90
24452;DHT22;13350;50.984;5.822;2024-02-28T14:21:42;10.80;99.90
24452;DHT22;13350;50.984;5.822;2024-02-28T14:24:09;10.50;99.90
24452;DHT22;13350;50.984;5.822;2024-02-28T14:26:36;10.70;99.90
24452;DHT22;13350;50.984;5.822;2024-02-28T14:29:04;10.70;99.90
24452;DHT22;13350;50.984;5.822;2024-02-28T14:31:31;10.50;99.90
24452;DHT22;13350;50.984;5.822;2024-02-28T14:33:58;10.40;99.90
24452;DHT22;13350;50.984;5.822;2024-02-28T14:36:25;10.20;99.90
24452;DHT22;13350;50.984;5.822;2024-02-28T14:38:54;10.10;99.90
24452;DHT22;13350;50.984;5.822;2024-02-28T14:41:20;10.00;99.90
24452;DHT22;13350;50.984;5.822;2024-02-28T14:43:48;10.20;99.90
24452;DHT22;13350;50.984;5.822;2024-02-28T14:46:15;10.50;99.90
24452;DHT22;13350;50.984;5.822;2024-02-28T14:48:46;10.80;99.90
24452;DHT22;13350;50.984;5.822;2024-02-28T14:51:17;10.80;99.90
24452;DHT22;13350;50.984;5.822;2024-02-28T14:53:45;10.60;99.90
24452;DHT22;13350;50.984;5.822;2024-02-28T14:56:14;10.70;99.90
24452;DHT22;13350;50.984;5.822;2024-02-28T14:58:42;10.50;99.90
24452;DHT22;13350;50.984;5.822;2024-02-28T15:01:09;10.40;99.90
24452;DHT22;13350;50.984;5.822;2024-02-28T15:03:36;10.50;99.90
24452;DHT22;13350;50.984;5.822;2024-02-28T15:06:03;10.70;99.90
24452;DHT22;13350;50.984;5.822;2024-02-28T15:08:30;10.70;99.90
24452;DHT22;13350;50.984;5.822;2024-02-28T15:10:57;10.70;99.90
24452;DHT22;13350;50.984;5.822;2024-02-28T15:13:25;10.60;99.90
24452;DHT22;13350;50.984;5.822;2024-02-28T15:15:52;10.50;99.90
24452;DHT22;13350;50.984;5.822;2024-02-28T15:18:19;10.70;99.90
24452;DHT22;13350;50.984;5.822;2024-02-28T15:20:47;10.60;99.90
24452;DHT22;13350;50.984;5.822;2024-02-28T15:23:14;10.60;99.90
24452;DHT22;13350;50.984;5.822;2024-02-28T15:25:44;10.30;99.90
24452;DHT22;13350;50.984;5.822;2024-02-28T15:28:13;10.30;99.90
24452;DHT22;13350;50.984;5.822;2024-02-28T15:30:41;10.30;99.90
24452;DHT22;13350;50.984;5.822;2024-02-28T15:33:08;10.40;99.90
24452;DHT22;13350;50.984;5.822;2024-02-28T15:35:35;10.10;99.90
24452;DHT22;13350;50.984;5.822;2024-02-28T15:38:02;10.10;99.90
24452;DHT22;13350;50.984;5.822;2024-02-28T15:40:29;10.10;99.90
24452;DHT22;13350;50.984;5.822;2024-02-28T15:42:56;10.20;99.90